ETD63S OMAA-EDDM
Flight info
| Callsign | ETD63S |
|---|---|
| Flight time | N/A |
| Altitude | 36000 |
| Route | DAXIB Q563 UKUVO G462 TUMAK L602 GADSI M860 RESAK/N0490F380 M860 NINVA UM860 ODALI UL852 NEGEM DCT KOMAN DCT MOPUG DCT SUNIS DCT VATET DCT REDBU Q112 NAPSA NAPSA4A |
| Aircraft | B77L/H-SDE1E2E3FGHIJ2J3J4J5M1RWXY/LB1D1 |
Departure
| Time | 2026-04-29 06:40 |
|---|---|
| Airport | Zayed International Airport (OMAA) |
Arrival
| Time | N/A |
|---|---|
| Airport | Munich Airport (EDDM) |
| Time | Latitude | Longitude | Altitude | Speed | Heading |
|---|---|---|---|---|---|
| 2026-04-29 06:16 | 24.44908 | 54.63972 | 78 ft | 0 kts | 333° |
| 2026-04-29 06:31 | 24.44907 | 54.63973 | 78 ft | 2 kts | 333° |
| 2026-04-29 06:31 | 24.44885 | 54.63986 | 72 ft | 4 kts | 324° |
| 2026-04-29 06:32 | 24.44864 | 54.64005 | 85 ft | 4 kts | 313° |
| 2026-04-29 06:32 | 24.44848 | 54.64027 | 85 ft | 4 kts | 296° |
| 2026-04-29 06:32 | 24.44840 | 54.64052 | 84 ft | 4 kts | 268° |
| 2026-04-29 06:32 | 24.44843 | 54.64069 | 85 ft | 0 kts | 242° |
| 2026-04-29 06:34 | 24.44836 | 54.64056 | 85 ft | 9 kts | 242° |
| 2026-04-29 06:35 | 24.44780 | 54.63940 | 85 ft | 19 kts | 246° |
| 2026-04-29 06:35 | 24.44764 | 54.63910 | 82 ft | 0 kts | 232° |
| 2026-04-29 06:35 | 24.44760 | 54.63905 | 82 ft | 6 kts | 232° |
| 2026-04-29 06:35 | 24.44738 | 54.63839 | 84 ft | 21 kts | 249° |
| 2026-04-29 06:37 | 24.44711 | 54.63758 | 85 ft | 26 kts | 250° |
| 2026-04-29 06:37 | 24.44657 | 54.63679 | 83 ft | 9 kts | 172° |
| 2026-04-29 06:37 | 24.44594 | 54.63665 | 84 ft | 10 kts | 208° |
| 2026-04-29 06:38 | 24.44554 | 54.63638 | 85 ft | 10 kts | 212° |
| 2026-04-29 06:38 | 24.44481 | 54.63577 | 85 ft | 11 kts | 218° |
| 2026-04-29 06:38 | 24.44416 | 54.63563 | 85 ft | 11 kts | 147° |
| 2026-04-29 06:38 | 24.44393 | 54.63588 | 84 ft | 0 kts | 127° |
| 2026-04-29 06:39 | 24.44344 | 54.63658 | 85 ft | 41 kts | 129° |
| 2026-04-29 06:39 | 24.44020 | 54.64111 | 87 ft | 108 kts | 129° |
| 2026-04-29 06:39 | 24.43482 | 54.64875 | 85 ft | 141 kts | 128° |
| 2026-04-29 06:39 | 24.42809 | 54.65827 | 89 ft | 164 kts | 130° |
| 2026-04-29 06:40 | 24.42117 | 54.66808 | 324 ft | 166 kts | 125° |
| 2026-04-29 06:40 | 24.41430 | 54.67870 | 1000 ft | 180 kts | 129° |
| 2026-04-29 06:40 | 24.40624 | 54.68981 | 1420 ft | 189 kts | 129° |
| 2026-04-29 06:40 | 24.39789 | 54.70127 | 1836 ft | 199 kts | 129° |
| 2026-04-29 06:41 | 24.38881 | 54.71379 | 2051 ft | 222 kts | 129° |
| 2026-04-29 06:41 | 24.37888 | 54.72758 | 2474 ft | 234 kts | 129° |
| 2026-04-29 06:41 | 24.36864 | 54.74187 | 3016 ft | 242 kts | 129° |
| 2026-04-29 06:41 | 24.35955 | 54.75729 | 3416 ft | 255 kts | 107° |
| 2026-04-29 06:42 | 24.35936 | 54.77679 | 3829 ft | 264 kts | 70° |
| 2026-04-29 06:42 | 24.36704 | 54.79047 | 4310 ft | 269 kts | 43° |
| 2026-04-29 06:42 | 24.37265 | 54.79558 | 4569 ft | 270 kts | 33° |
| 2026-04-29 06:42 | 24.38997 | 54.80360 | 5251 ft | 273 kts | 9° |
| 2026-04-29 06:43 | 24.40885 | 54.80299 | 5933 ft | 275 kts | 341° |
| 2026-04-29 06:43 | 24.42512 | 54.79236 | 6613 ft | 274 kts | 314° |
| 2026-04-29 06:43 | 24.43794 | 54.77670 | 7218 ft | 279 kts | 309° |
| 2026-04-29 06:43 | 24.45036 | 54.76016 | 7914 ft | 282 kts | 308° |
| 2026-04-29 06:44 | 24.46275 | 54.74340 | 8619 ft | 284 kts | 308° |
| 2026-04-29 06:44 | 24.47506 | 54.72677 | 9289 ft | 286 kts | 308° |
| 2026-04-29 06:44 | 24.48774 | 54.70976 | 9927 ft | 289 kts | 309° |
| 2026-04-29 06:44 | 24.50065 | 54.69257 | 10532 ft | 295 kts | 309° |
| 2026-04-29 06:45 | 24.51416 | 54.67466 | 10751 ft | 316 kts | 309° |
| 2026-04-29 06:45 | 24.52867 | 54.65552 | 10926 ft | 337 kts | 309° |
| 2026-04-29 06:45 | 24.54418 | 54.63509 | 11126 ft | 359 kts | 309° |
| 2026-04-29 06:45 | 24.56055 | 54.61361 | 11519 ft | 372 kts | 309° |
| 2026-04-29 06:46 | 24.57739 | 54.59153 | 12087 ft | 381 kts | 309° |
| 2026-04-29 06:46 | 24.59433 | 54.56933 | 12724 ft | 387 kts | 309° |
| 2026-04-29 06:46 | 24.61168 | 54.54659 | 13441 ft | 390 kts | 309° |
| 2026-04-29 06:46 | 24.62913 | 54.52372 | 14191 ft | 393 kts | 309° |
| 2026-04-29 06:47 | 24.64676 | 54.50060 | 14855 ft | 396 kts | 309° |
| 2026-04-29 06:47 | 24.66456 | 54.47723 | 15499 ft | 401 kts | 309° |
| 2026-04-29 06:47 | 24.68255 | 54.45362 | 16126 ft | 405 kts | 309° |
| 2026-04-29 06:47 | 24.70067 | 54.42982 | 16749 ft | 408 kts | 309° |
| 2026-04-29 06:48 | 24.71898 | 54.40576 | 17343 ft | 412 kts | 309° |
| 2026-04-29 06:48 | 24.73722 | 54.38178 | 17914 ft | 415 kts | 309° |
| 2026-04-29 06:48 | 24.75583 | 54.35730 | 18497 ft | 419 kts | 309° |
| 2026-04-29 06:48 | 24.77462 | 54.33256 | 19039 ft | 423 kts | 309° |
| 2026-04-29 06:49 | 24.79353 | 54.30766 | 19590 ft | 426 kts | 309° |
| 2026-04-29 06:49 | 24.81263 | 54.28249 | 20108 ft | 430 kts | 309° |
| 2026-04-29 06:49 | 24.83182 | 54.25719 | 20639 ft | 433 kts | 309° |
| 2026-04-29 06:49 | 24.85118 | 54.23165 | 21141 ft | 436 kts | 309° |
| 2026-04-29 06:50 | 24.87069 | 54.20591 | 21649 ft | 439 kts | 309° |
| 2026-04-29 06:50 | 24.89036 | 54.17994 | 22135 ft | 443 kts | 309° |
| 2026-04-29 06:50 | 24.90343 | 54.16268 | 22443 ft | 445 kts | 309° |
| 2026-04-29 06:50 | 24.93005 | 54.12804 | 23056 ft | 449 kts | 311° |
| 2026-04-29 06:51 | 24.95083 | 54.10230 | 23505 ft | 452 kts | 311° |
| 2026-04-29 06:51 | 24.97198 | 54.07652 | 23948 ft | 455 kts | 311° |
| 2026-04-29 06:51 | 24.98639 | 54.05899 | 24255 ft | 457 kts | 311° |
| 2026-04-29 06:51 | 25.01473 | 54.02437 | 24825 ft | 461 kts | 311° |
| 2026-04-29 06:52 | 25.02893 | 54.00692 | 25104 ft | 463 kts | 311° |
| 2026-04-29 06:52 | 25.05046 | 53.98036 | 25517 ft | 466 kts | 311° |
| 2026-04-29 06:52 | 25.07211 | 53.95358 | 25925 ft | 469 kts | 311° |
| 2026-04-29 06:52 | 25.09387 | 53.92662 | 26304 ft | 472 kts | 311° |
| 2026-04-29 06:53 | 25.11573 | 53.89951 | 26676 ft | 475 kts | 311° |
| 2026-04-29 06:53 | 25.13774 | 53.87222 | 27060 ft | 477 kts | 311° |
| 2026-04-29 06:53 | 25.15987 | 53.84477 | 27423 ft | 480 kts | 311° |
| 2026-04-29 06:53 | 25.18183 | 53.81753 | 27773 ft | 482 kts | 311° |
| 2026-04-29 06:54 | 25.20437 | 53.78997 | 28118 ft | 485 kts | 313° |
| 2026-04-29 06:54 | 25.22887 | 53.76428 | 28446 ft | 488 kts | 319° |
| 2026-04-29 06:54 | 25.25505 | 53.74021 | 28751 ft | 490 kts | 320° |
| 2026-04-29 06:54 | 25.28147 | 53.71632 | 29047 ft | 493 kts | 320° |
| 2026-04-29 06:55 | 25.30801 | 53.69224 | 29354 ft | 495 kts | 320° |
| 2026-04-29 06:55 | 25.33454 | 53.66790 | 29640 ft | 497 kts | 320° |
| 2026-04-29 06:55 | 25.36107 | 53.64336 | 29940 ft | 498 kts | 320° |
| 2026-04-29 06:55 | 25.38760 | 53.61871 | 30314 ft | 497 kts | 320° |
| 2026-04-29 06:56 | 25.41365 | 53.59450 | 30714 ft | 495 kts | 320° |
| 2026-04-29 06:56 | 25.44002 | 53.56999 | 31101 ft | 494 kts | 320° |
| 2026-04-29 06:56 | 25.46631 | 53.54558 | 31439 ft | 494 kts | 320° |
| 2026-04-29 06:56 | 25.49261 | 53.52116 | 31749 ft | 493 kts | 320° |
| 2026-04-29 06:57 | 25.51885 | 53.49676 | 32062 ft | 493 kts | 320° |
| 2026-04-29 06:57 | 25.57167 | 53.44760 | 32165 ft | 496 kts | 320° |
| 2026-04-29 06:58 | 25.62343 | 53.39926 | 32239 ft | 494 kts | 319° |
| 2026-04-29 06:58 | 25.64901 | 53.37462 | 32508 ft | 493 kts | 318° |
| 2026-04-29 06:58 | 25.67469 | 53.34949 | 32861 ft | 491 kts | 318° |
| 2026-04-29 06:58 | 25.70024 | 53.32440 | 33220 ft | 489 kts | 318° |
| 2026-04-29 06:59 | 25.72565 | 53.29952 | 33554 ft | 487 kts | 318° |
| 2026-04-29 06:59 | 25.75106 | 53.27471 | 33825 ft | 487 kts | 318° |
| 2026-04-29 06:59 | 25.77646 | 53.24996 | 34059 ft | 487 kts | 318° |
| 2026-04-29 06:59 | 25.80190 | 53.22512 | 34296 ft | 486 kts | 317° |
| 2026-04-29 07:00 | 25.82553 | 53.19840 | 34540 ft | 485 kts | 309° |
| 2026-04-29 07:00 | 25.84579 | 53.16860 | 34717 ft | 485 kts | 303° |
| 2026-04-29 07:00 | 25.86326 | 53.13635 | 34668 ft | 490 kts | 296° |
| 2026-04-29 07:01 | 25.89098 | 53.06772 | 34882 ft | 493 kts | 293° |
| 2026-04-29 07:01 | 25.90468 | 53.03283 | 35245 ft | 491 kts | 293° |
| 2026-04-29 07:01 | 25.91842 | 52.99816 | 35684 ft | 488 kts | 294° |
| 2026-04-29 07:01 | 25.93218 | 52.96384 | 36029 ft | 487 kts | 294° |
| 2026-04-29 07:02 | 25.94611 | 52.92933 | 35996 ft | 490 kts | 294° |
| 2026-04-29 07:02 | 25.97399 | 52.86050 | 35995 ft | 485 kts | 294° |
| 2026-04-29 07:03 | 26.00134 | 52.79284 | 36002 ft | 483 kts | 294° |
| 2026-04-29 07:03 | 26.02905 | 52.72492 | 36002 ft | 482 kts | 295° |
| 2026-04-29 07:04 | 26.05935 | 52.65836 | 36005 ft | 483 kts | 297° |
| 2026-04-29 07:04 | 26.08990 | 52.59176 | 36005 ft | 483 kts | 296° |
| 2026-04-29 07:05 | 26.11976 | 52.52529 | 36003 ft | 484 kts | 296° |
| 2026-04-29 07:05 | 26.15006 | 52.45834 | 36000 ft | 485 kts | 296° |
| 2026-04-29 07:06 | 26.18050 | 52.39123 | 36001 ft | 485 kts | 296° |
| 2026-04-29 07:06 | 26.21086 | 52.32408 | 36001 ft | 486 kts | 296° |
| 2026-04-29 07:07 | 26.24057 | 52.25704 | 36002 ft | 486 kts | 295° |
| 2026-04-29 07:07 | 26.26975 | 52.18914 | 36001 ft | 486 kts | 295° |
| 2026-04-29 07:08 | 26.29903 | 52.12121 | 36004 ft | 486 kts | 295° |
| 2026-04-29 07:08 | 26.32834 | 52.05331 | 36002 ft | 486 kts | 295° |
| 2026-04-29 07:09 | 26.35740 | 51.98526 | 36002 ft | 486 kts | 295° |
| 2026-04-29 07:09 | 26.38464 | 51.91696 | 36002 ft | 485 kts | 290° |
| 2026-04-29 07:10 | 26.40769 | 51.84620 | 36007 ft | 485 kts | 289° |
| 2026-04-29 07:10 | 26.43129 | 51.77571 | 36000 ft | 485 kts | 290° |
| 2026-04-29 07:11 | 26.45518 | 51.70530 | 36005 ft | 485 kts | 290° |
| 2026-04-29 07:11 | 26.47890 | 51.63532 | 36003 ft | 485 kts | 290° |
| 2026-04-29 07:12 | 26.50248 | 51.56481 | 36000 ft | 485 kts | 290° |
| 2026-04-29 07:12 | 26.52584 | 51.49413 | 36000 ft | 485 kts | 290° |
| 2026-04-29 07:13 | 26.54922 | 51.42343 | 36003 ft | 485 kts | 290° |
| 2026-04-29 07:13 | 26.57244 | 51.35325 | 36002 ft | 485 kts | 290° |
| 2026-04-29 07:14 | 26.59578 | 51.28257 | 35999 ft | 485 kts | 290° |
| 2026-04-29 07:14 | 26.61916 | 51.21182 | 35999 ft | 485 kts | 290° |
| 2026-04-29 07:15 | 26.64251 | 51.14111 | 36000 ft | 485 kts | 290° |
| 2026-04-29 07:15 | 26.66584 | 51.07030 | 36004 ft | 485 kts | 290° |
| 2026-04-29 07:16 | 26.68896 | 50.99995 | 36002 ft | 485 kts | 289° |
| 2026-04-29 07:16 | 26.71181 | 50.92897 | 36001 ft | 485 kts | 289° |
| 2026-04-29 07:17 | 26.73452 | 50.85790 | 36002 ft | 485 kts | 289° |
| 2026-04-29 07:17 | 26.74560 | 50.82327 | 36000 ft | 484 kts | 289° |
| 2026-04-29 07:18 | 26.76819 | 50.75267 | 36006 ft | 486 kts | 289° |
| 2026-04-29 07:18 | 26.79217 | 50.68189 | 36000 ft | 487 kts | 295° |
| 2026-04-29 07:19 | 26.82625 | 50.61634 | 36005 ft | 488 kts | 305° |
| 2026-04-29 07:19 | 26.86909 | 50.55735 | 35997 ft | 488 kts | 310° |
| 2026-04-29 07:20 | 26.91249 | 50.49882 | 35999 ft | 488 kts | 309° |
| 2026-04-29 07:20 | 26.95767 | 50.44276 | 35994 ft | 488 kts | 313° |
| 2026-04-29 07:21 | 27.00462 | 50.38785 | 36000 ft | 487 kts | 313° |
| 2026-04-29 07:21 | 27.05114 | 50.33256 | 36001 ft | 487 kts | 313° |
| 2026-04-29 07:22 | 27.09730 | 50.27692 | 36003 ft | 487 kts | 312° |
| 2026-04-29 07:22 | 27.14307 | 50.22169 | 36002 ft | 486 kts | 313° |
| 2026-04-29 07:23 | 27.19365 | 50.17147 | 36001 ft | 486 kts | 323° |
| 2026-04-29 07:23 | 27.24833 | 50.12714 | 36005 ft | 486 kts | 324° |
| 2026-04-29 07:24 | 27.30261 | 50.08274 | 35996 ft | 486 kts | 323° |
| 2026-04-29 07:24 | 27.35704 | 50.03751 | 36004 ft | 486 kts | 323° |
| 2026-04-29 07:25 | 27.41072 | 49.99129 | 36002 ft | 486 kts | 321° |
| 2026-04-29 07:25 | 27.46392 | 49.94414 | 36003 ft | 486 kts | 321° |
| 2026-04-29 07:26 | 27.51716 | 49.89706 | 36000 ft | 487 kts | 321° |
| 2026-04-29 07:26 | 27.57012 | 49.85042 | 36001 ft | 487 kts | 321° |
| 2026-04-29 07:27 | 27.62348 | 49.80341 | 36000 ft | 487 kts | 321° |
| 2026-04-29 07:27 | 27.67683 | 49.75635 | 35998 ft | 487 kts | 321° |
| 2026-04-29 07:28 | 27.73019 | 49.70920 | 36002 ft | 487 kts | 321° |
| 2026-04-29 07:28 | 27.78350 | 49.66204 | 36003 ft | 487 kts | 321° |
| 2026-04-29 07:29 | 27.83634 | 49.61492 | 36002 ft | 487 kts | 321° |
| 2026-04-29 07:29 | 27.88942 | 49.56737 | 36002 ft | 487 kts | 321° |
| 2026-04-29 07:30 | 27.94250 | 49.51981 | 35999 ft | 487 kts | 321° |
| 2026-04-29 07:30 | 27.99557 | 49.47223 | 36002 ft | 487 kts | 321° |
| 2026-04-29 07:31 | 28.07467 | 49.40082 | 35999 ft | 487 kts | 321° |
| 2026-04-29 07:31 | 28.12736 | 49.35269 | 36000 ft | 487 kts | 321° |
| 2026-04-29 07:32 | 28.18008 | 49.30454 | 36001 ft | 487 kts | 321° |
| 2026-04-29 07:32 | 28.23282 | 49.25636 | 36002 ft | 487 kts | 321° |
| 2026-04-29 07:33 | 28.28516 | 49.20844 | 35999 ft | 487 kts | 320° |
| 2026-04-29 07:33 | 28.33769 | 49.15992 | 36002 ft | 487 kts | 320° |
| 2026-04-29 07:34 | 28.39020 | 49.11142 | 36003 ft | 487 kts | 321° |
| 2026-04-29 07:34 | 28.44552 | 49.06712 | 36005 ft | 487 kts | 326° |
| 2026-04-29 07:35 | 28.50161 | 49.02490 | 36003 ft | 487 kts | 326° |
| 2026-04-29 07:35 | 28.55795 | 48.98216 | 36000 ft | 487 kts | 326° |
| 2026-04-29 07:36 | 28.61416 | 48.93909 | 36001 ft | 487 kts | 326° |
| 2026-04-29 07:36 | 28.67030 | 48.89594 | 35999 ft | 487 kts | 326° |
| 2026-04-29 07:37 | 28.72649 | 48.85271 | 36000 ft | 487 kts | 326° |
| 2026-04-29 07:37 | 28.78224 | 48.80979 | 36001 ft | 487 kts | 326° |
| 2026-04-29 07:38 | 28.83844 | 48.76655 | 36000 ft | 487 kts | 326° |
| 2026-04-29 07:38 | 28.89471 | 48.72339 | 35998 ft | 487 kts | 326° |
| 2026-04-29 07:39 | 28.95058 | 48.68050 | 36002 ft | 487 kts | 326° |
| 2026-04-29 07:39 | 29.00681 | 48.63724 | 36002 ft | 487 kts | 326° |
| 2026-04-29 07:40 | 29.06297 | 48.59396 | 35999 ft | 487 kts | 326° |
| 2026-04-29 07:40 | 29.11914 | 48.55062 | 36000 ft | 487 kts | 326° |
| 2026-04-29 07:41 | 29.17522 | 48.50729 | 36002 ft | 487 kts | 326° |
| 2026-04-29 07:41 | 29.23054 | 48.46449 | 36003 ft | 487 kts | 326° |
| 2026-04-29 07:42 | 29.28628 | 48.42130 | 36000 ft | 487 kts | 326° |
| 2026-04-29 07:42 | 29.34239 | 48.37777 | 36000 ft | 487 kts | 325° |
| 2026-04-29 07:43 | 29.39849 | 48.33419 | 36002 ft | 487 kts | 325° |
| 2026-04-29 07:43 | 29.45512 | 48.29170 | 36001 ft | 487 kts | 329° |
| 2026-04-29 07:44 | 29.51354 | 48.25330 | 36006 ft | 487 kts | 330° |
| 2026-04-29 07:44 | 29.57262 | 48.21507 | 35999 ft | 487 kts | 330° |
| 2026-04-29 07:45 | 29.63153 | 48.17653 | 36004 ft | 487 kts | 330° |
| 2026-04-29 07:45 | 29.69035 | 48.13774 | 36001 ft | 488 kts | 330° |
| 2026-04-29 07:46 | 29.74921 | 48.09884 | 36002 ft | 488 kts | 330° |
| 2026-04-29 07:46 | 29.80761 | 48.06022 | 36005 ft | 488 kts | 329° |
| 2026-04-29 07:47 | 29.86642 | 48.02128 | 36000 ft | 488 kts | 329° |
| 2026-04-29 07:47 | 29.92524 | 47.98228 | 36000 ft | 488 kts | 329° |
| 2026-04-29 07:48 | 29.98384 | 47.94317 | 36004 ft | 487 kts | 327° |
| 2026-04-29 07:48 | 30.03709 | 47.89596 | 36003 ft | 486 kts | 317° |
| 2026-04-29 07:49 | 30.08296 | 47.83874 | 36011 ft | 486 kts | 310° |
| 2026-04-29 07:49 | 30.12672 | 47.77931 | 36001 ft | 486 kts | 310° |
| 2026-04-29 07:50 | 30.17064 | 47.71994 | 35998 ft | 486 kts | 310° |
| 2026-04-29 07:50 | 30.21482 | 47.66072 | 36001 ft | 486 kts | 310° |
| 2026-04-29 07:51 | 30.25878 | 47.60189 | 36002 ft | 486 kts | 310° |
| 2026-04-29 07:51 | 30.30299 | 47.54265 | 36003 ft | 487 kts | 310° |
| 2026-04-29 07:52 | 30.34718 | 47.48331 | 36002 ft | 487 kts | 310° |
| 2026-04-29 07:52 | 30.39135 | 47.42387 | 36000 ft | 487 kts | 310° |
| 2026-04-29 07:53 | 30.43549 | 47.36440 | 35999 ft | 487 kts | 310° |
| 2026-04-29 07:53 | 30.47930 | 47.30528 | 35999 ft | 487 kts | 310° |
| 2026-04-29 07:54 | 30.52338 | 47.24571 | 35999 ft | 487 kts | 310° |
| 2026-04-29 07:54 | 30.56830 | 47.18703 | 36004 ft | 486 kts | 315° |
| 2026-04-29 07:55 | 30.61983 | 47.13620 | 36007 ft | 486 kts | 321° |
| 2026-04-29 07:55 | 30.67267 | 47.08781 | 35998 ft | 487 kts | 321° |
| 2026-04-29 07:56 | 30.72568 | 47.03892 | 36000 ft | 487 kts | 321° |
| 2026-04-29 07:56 | 30.77853 | 46.98961 | 36001 ft | 487 kts | 321° |
| 2026-04-29 07:57 | 30.83129 | 46.94012 | 36005 ft | 487 kts | 321° |
| 2026-04-29 07:57 | 30.88370 | 46.89088 | 36003 ft | 487 kts | 321° |
| 2026-04-29 07:58 | 30.93639 | 46.84133 | 36001 ft | 487 kts | 321° |
| 2026-04-29 07:58 | 30.98916 | 46.79165 | 36001 ft | 488 kts | 321° |
| 2026-04-29 07:59 | 31.04191 | 46.74191 | 36000 ft | 487 kts | 321° |
| 2026-04-29 07:59 | 31.09422 | 46.69252 | 36002 ft | 487 kts | 321° |
| 2026-04-29 08:00 | 31.14687 | 46.64272 | 35996 ft | 487 kts | 320° |
| 2026-04-29 08:00 | 31.19945 | 46.59293 | 36000 ft | 487 kts | 320° |
| 2026-04-29 08:01 | 31.25205 | 46.54303 | 35999 ft | 487 kts | 320° |
| 2026-04-29 08:01 | 31.30461 | 46.49311 | 36002 ft | 487 kts | 320° |
| 2026-04-29 08:02 | 31.35678 | 46.44349 | 35998 ft | 487 kts | 320° |
| 2026-04-29 08:02 | 31.40926 | 46.39349 | 36002 ft | 487 kts | 320° |
| 2026-04-29 08:03 | 31.46176 | 46.34339 | 35998 ft | 487 kts | 320° |
| 2026-04-29 08:03 | 31.51426 | 46.29323 | 36002 ft | 487 kts | 320° |
| 2026-04-29 08:04 | 31.56673 | 46.24302 | 36001 ft | 487 kts | 320° |
| 2026-04-29 08:04 | 31.61879 | 46.19336 | 35599 ft | 478 kts | 310° |
| 2026-04-29 08:05 | 31.64427 | 46.16908 | 35741 ft | 466 kts | 309° |
| 2026-04-29 08:05 | 31.66918 | 46.14505 | 35835 ft | 463 kts | 309° |
| 2026-04-29 08:05 | 31.71894 | 46.09688 | 35933 ft | 464 kts | 309° |
| 2026-04-29 08:06 | 31.76896 | 46.04853 | 35942 ft | 467 kts | 309° |
| 2026-04-29 08:06 | 31.81842 | 45.99950 | 35944 ft | 469 kts | 308° |
| 2026-04-29 08:07 | 31.86821 | 45.94980 | 35930 ft | 470 kts | 309° |
| 2026-04-29 08:07 | 31.91819 | 45.89999 | 35942 ft | 471 kts | 309° |
| 2026-04-29 08:08 | 31.96820 | 45.85017 | 35937 ft | 471 kts | 309° |
| 2026-04-29 08:08 | 32.01813 | 45.80037 | 35937 ft | 470 kts | 309° |
| 2026-04-29 08:09 | 32.06760 | 45.75096 | 35940 ft | 469 kts | 309° |
| 2026-04-29 08:09 | 32.10917 | 45.70936 | 35938 ft | 468 kts | 309° |
| 2026-04-29 08:10 | 32.15450 | 45.66394 | 36019 ft | 469 kts | 309° |
| 2026-04-29 08:10 | 32.17937 | 45.63897 | 36341 ft | 468 kts | 308° |
| 2026-04-29 08:10 | 32.20413 | 45.61415 | 36745 ft | 465 kts | 308° |
| 2026-04-29 08:11 | 32.22873 | 45.58948 | 37166 ft | 462 kts | 308° |
| 2026-04-29 08:11 | 32.25285 | 45.56527 | 37564 ft | 460 kts | 308° |
| 2026-04-29 08:11 | 32.27716 | 45.54081 | 37863 ft | 459 kts | 308° |
| 2026-04-29 08:11 | 32.30158 | 45.51618 | 37897 ft | 462 kts | 308° |
| 2026-04-29 08:12 | 32.35050 | 45.46682 | 37932 ft | 462 kts | 308° |
| 2026-04-29 08:12 | 32.39916 | 45.41776 | 37944 ft | 458 kts | 308° |
| 2026-04-29 08:13 | 32.44745 | 45.36896 | 37938 ft | 455 kts | 308° |
| 2026-04-29 08:13 | 32.49517 | 45.32063 | 37944 ft | 454 kts | 307° |
| 2026-04-29 08:14 | 32.54321 | 45.27205 | 37943 ft | 455 kts | 309° |
| 2026-04-29 08:14 | 32.59551 | 45.22769 | 37935 ft | 466 kts | 314° |
| 2026-04-29 08:15 | 32.64945 | 45.18557 | 37947 ft | 468 kts | 315° |
| 2026-04-29 08:15 | 32.70373 | 45.14302 | 37951 ft | 469 kts | 314° |
| 2026-04-29 08:16 | 32.75809 | 45.09998 | 37953 ft | 470 kts | 314° |
| 2026-04-29 08:16 | 32.81258 | 45.05663 | 37950 ft | 472 kts | 314° |
| 2026-04-29 08:17 | 32.86718 | 45.01313 | 37942 ft | 473 kts | 314° |
| 2026-04-29 08:17 | 32.92154 | 44.96979 | 37943 ft | 474 kts | 314° |
| 2026-04-29 08:18 | 32.97627 | 44.92608 | 37952 ft | 474 kts | 314° |
| 2026-04-29 08:18 | 33.03104 | 44.88227 | 37945 ft | 474 kts | 314° |
| 2026-04-29 08:19 | 33.08584 | 44.83837 | 37945 ft | 475 kts | 315° |
| 2026-04-29 08:19 | 33.14023 | 44.79472 | 37941 ft | 474 kts | 315° |
| 2026-04-29 08:20 | 33.19666 | 44.75311 | 37936 ft | 489 kts | 325° |
| 2026-04-29 08:20 | 33.22910 | 44.73901 | 37944 ft | 503 kts | 333° |
| 2026-04-29 08:20 | 33.26376 | 44.73020 | 37939 ft | 518 kts | 343° |
| 2026-04-29 08:21 | 33.33685 | 44.72661 | 37937 ft | 529 kts | 349° |
| 2026-04-29 08:21 | 33.40992 | 44.72610 | 37940 ft | 529 kts | 349° |
| 2026-04-29 08:22 | 33.48345 | 44.72486 | 37937 ft | 527 kts | 349° |
| 2026-04-29 08:22 | 33.55676 | 44.72274 | 37936 ft | 527 kts | 349° |
| 2026-04-29 08:23 | 33.62999 | 44.72036 | 37937 ft | 526 kts | 349° |
| 2026-04-29 08:23 | 33.70316 | 44.71803 | 37939 ft | 526 kts | 349° |
| 2026-04-29 08:24 | 33.77578 | 44.71578 | 37933 ft | 525 kts | 349° |
| 2026-04-29 08:24 | 33.84879 | 44.71354 | 37932 ft | 525 kts | 349° |
| 2026-04-29 08:25 | 33.92172 | 44.71128 | 37932 ft | 524 kts | 349° |
| 2026-04-29 08:25 | 33.99461 | 44.70902 | 37928 ft | 524 kts | 349° |
| 2026-04-29 08:26 | 34.06698 | 44.70677 | 37929 ft | 523 kts | 349° |
| 2026-04-29 08:26 | 34.13975 | 44.70451 | 37929 ft | 523 kts | 349° |
| 2026-04-29 08:27 | 34.21249 | 44.70224 | 37926 ft | 523 kts | 349° |
| 2026-04-29 08:27 | 34.28526 | 44.69997 | 37929 ft | 523 kts | 349° |
| 2026-04-29 08:28 | 34.35790 | 44.69770 | 37931 ft | 522 kts | 349° |
| 2026-04-29 08:28 | 34.43059 | 44.69543 | 37936 ft | 522 kts | 350° |
| 2026-04-29 08:29 | 34.50155 | 44.68726 | 37931 ft | 509 kts | 340° |
| 2026-04-29 08:29 | 34.56889 | 44.66502 | 37929 ft | 494 kts | 329° |
| 2026-04-29 08:30 | 34.66436 | 44.61841 | 37934 ft | 493 kts | 328° |
| 2026-04-29 08:31 | 34.72788 | 44.58715 | 37933 ft | 493 kts | 329° |
| 2026-04-29 08:31 | 34.79131 | 44.55636 | 37937 ft | 494 kts | 329° |
| 2026-04-29 08:32 | 34.85522 | 44.52545 | 37935 ft | 495 kts | 329° |
| 2026-04-29 08:32 | 34.91924 | 44.49443 | 37941 ft | 495 kts | 329° |
| 2026-04-29 08:33 | 34.98330 | 44.46332 | 37933 ft | 496 kts | 330° |
| 2026-04-29 08:33 | 35.04693 | 44.43235 | 37948 ft | 496 kts | 330° |
| 2026-04-29 08:34 | 35.11103 | 44.40110 | 37946 ft | 496 kts | 330° |
| 2026-04-29 08:34 | 35.17513 | 44.36980 | 37944 ft | 496 kts | 330° |
| 2026-04-29 08:35 | 35.23927 | 44.33843 | 37943 ft | 496 kts | 330° |
| 2026-04-29 08:35 | 35.30328 | 44.30693 | 37945 ft | 495 kts | 330° |
| 2026-04-29 08:36 | 35.36632 | 44.27453 | 37944 ft | 494 kts | 329° |
| 2026-04-29 08:36 | 35.42961 | 44.24159 | 37941 ft | 494 kts | 329° |
| 2026-04-29 08:37 | 35.49290 | 44.20878 | 37928 ft | 494 kts | 329° |
| 2026-04-29 08:37 | 35.55622 | 44.17602 | 37935 ft | 494 kts | 330° |
| 2026-04-29 08:38 | 35.61949 | 44.14324 | 37959 ft | 493 kts | 330° |
| 2026-04-29 08:38 | 35.68237 | 44.11058 | 37939 ft | 494 kts | 330° |
| 2026-04-29 08:39 | 35.74560 | 44.07769 | 37949 ft | 493 kts | 330° |
| 2026-04-29 08:39 | 35.80879 | 44.04477 | 37945 ft | 493 kts | 330° |
| 2026-04-29 08:40 | 35.87190 | 44.01191 | 37953 ft | 493 kts | 330° |
| 2026-04-29 08:40 | 35.93467 | 43.97926 | 37947 ft | 493 kts | 330° |
| 2026-04-29 08:41 | 35.99781 | 43.94633 | 37941 ft | 493 kts | 330° |
| 2026-04-29 08:41 | 36.06095 | 43.91334 | 37946 ft | 493 kts | 330° |
| 2026-04-29 08:42 | 36.12406 | 43.88030 | 37942 ft | 493 kts | 330° |
| 2026-04-29 08:42 | 36.18685 | 43.84738 | 37944 ft | 493 kts | 330° |
| 2026-04-29 08:43 | 36.25002 | 43.81420 | 37942 ft | 493 kts | 331° |
| 2026-04-29 08:43 | 36.31324 | 43.78110 | 37944 ft | 493 kts | 331° |
| 2026-04-29 08:44 | 36.37659 | 43.74836 | 37946 ft | 494 kts | 331° |
| 2026-04-29 08:44 | 36.43958 | 43.71578 | 37945 ft | 493 kts | 331° |
| 2026-04-29 08:45 | 36.50292 | 43.68289 | 37940 ft | 494 kts | 331° |
| 2026-04-29 08:45 | 36.56627 | 43.64990 | 37946 ft | 494 kts | 332° |
| 2026-04-29 08:46 | 36.62966 | 43.61684 | 37947 ft | 494 kts | 332° |
| 2026-04-29 08:46 | 36.69298 | 43.58375 | 37951 ft | 494 kts | 332° |
| 2026-04-29 08:47 | 36.75594 | 43.55075 | 37955 ft | 494 kts | 331° |
| 2026-04-29 08:47 | 36.81867 | 43.51614 | 37956 ft | 493 kts | 330° |
| 2026-04-29 08:48 | 36.88115 | 43.48086 | 37958 ft | 493 kts | 330° |
| 2026-04-29 08:48 | 36.94367 | 43.44569 | 37958 ft | 493 kts | 330° |
| 2026-04-29 08:49 | 37.00633 | 43.41060 | 37967 ft | 494 kts | 330° |
| 2026-04-29 08:49 | 37.06863 | 43.37567 | 37951 ft | 494 kts | 330° |
| 2026-04-29 08:50 | 37.13125 | 43.34048 | 37964 ft | 493 kts | 330° |
| 2026-04-29 08:50 | 37.19380 | 43.30525 | 37956 ft | 493 kts | 330° |
| 2026-04-29 08:51 | 37.25628 | 43.27000 | 37970 ft | 492 kts | 330° |
| 2026-04-29 08:51 | 37.31688 | 43.23402 | 37966 ft | 485 kts | 322° |
| 2026-04-29 08:51 | 37.34339 | 43.20865 | 37976 ft | 477 kts | 311° |
| 2026-04-29 08:52 | 37.36542 | 43.17847 | 37982 ft | 471 kts | 303° |
| 2026-04-29 08:52 | 37.39781 | 43.10813 | 37979 ft | 464 kts | 293° |
| 2026-04-29 08:53 | 37.42751 | 43.03582 | 37985 ft | 466 kts | 293° |
| 2026-04-29 08:53 | 37.45781 | 42.96350 | 37988 ft | 469 kts | 294° |
| 2026-04-29 08:54 | 37.48856 | 42.89085 | 37975 ft | 470 kts | 294° |
| 2026-04-29 08:54 | 37.51904 | 42.81883 | 37973 ft | 469 kts | 294° |
| 2026-04-29 08:55 | 37.54963 | 42.74629 | 37959 ft | 468 kts | 294° |
| 2026-04-29 08:55 | 37.58009 | 42.67386 | 37960 ft | 467 kts | 294° |
| 2026-04-29 08:56 | 37.61047 | 42.60173 | 37960 ft | 466 kts | 294° |
| 2026-04-29 08:56 | 37.64089 | 42.52968 | 37959 ft | 465 kts | 294° |
| 2026-04-29 08:57 | 37.67099 | 42.45823 | 37952 ft | 464 kts | 294° |
| 2026-04-29 08:57 | 37.70119 | 42.38632 | 37959 ft | 464 kts | 294° |
| 2026-04-29 08:58 | 37.73137 | 42.31425 | 37952 ft | 464 kts | 294° |
| 2026-04-29 08:58 | 37.76153 | 42.24208 | 37950 ft | 464 kts | 294° |
| 2026-04-29 08:59 | 37.79143 | 42.17039 | 37947 ft | 465 kts | 294° |
| 2026-04-29 08:59 | 37.82161 | 42.09782 | 37934 ft | 466 kts | 294° |
| 2026-04-29 09:00 | 37.85171 | 42.02532 | 37946 ft | 465 kts | 294° |
| 2026-04-29 09:00 | 37.88182 | 41.95267 | 37934 ft | 466 kts | 294° |
| 2026-04-29 09:01 | 37.91408 | 41.88129 | 37908 ft | 470 kts | 301° |
| 2026-04-29 09:01 | 37.95507 | 41.81694 | 37936 ft | 474 kts | 308° |
| 2026-04-29 09:02 | 37.99901 | 41.75478 | 37917 ft | 474 kts | 308° |
| 2026-04-29 09:02 | 38.04289 | 41.69239 | 37921 ft | 474 kts | 308° |
| 2026-04-29 09:03 | 38.08653 | 41.62966 | 37924 ft | 474 kts | 307° |
| 2026-04-29 09:03 | 38.12970 | 41.56727 | 37934 ft | 473 kts | 307° |
| 2026-04-29 09:04 | 38.17310 | 41.50439 | 37926 ft | 473 kts | 307° |
| 2026-04-29 09:04 | 38.21645 | 41.44150 | 37929 ft | 473 kts | 307° |
| 2026-04-29 09:05 | 38.25969 | 41.37867 | 37936 ft | 472 kts | 307° |
| 2026-04-29 09:05 | 38.30261 | 41.31615 | 37937 ft | 472 kts | 307° |
| 2026-04-29 09:06 | 38.34575 | 41.25322 | 37943 ft | 471 kts | 307° |
| 2026-04-29 09:06 | 38.38875 | 41.19034 | 37943 ft | 470 kts | 307° |
| 2026-04-29 09:07 | 38.43171 | 41.12741 | 37938 ft | 470 kts | 307° |
| 2026-04-29 09:07 | 38.47453 | 41.06441 | 37939 ft | 470 kts | 307° |
| 2026-04-29 09:08 | 38.51622 | 41.00095 | 37934 ft | 469 kts | 306° |
| 2026-04-29 09:08 | 38.55795 | 40.93686 | 37943 ft | 469 kts | 306° |
| 2026-04-29 09:09 | 38.59989 | 40.87264 | 37938 ft | 471 kts | 307° |
| 2026-04-29 09:09 | 38.64161 | 40.80884 | 37933 ft | 471 kts | 307° |
| 2026-04-29 09:10 | 38.68387 | 40.74491 | 37936 ft | 470 kts | 307° |
| 2026-04-29 09:10 | 38.72618 | 40.68106 | 37935 ft | 470 kts | 307° |
| 2026-04-29 09:11 | 38.76841 | 40.61711 | 37936 ft | 470 kts | 307° |
| 2026-04-29 09:11 | 38.81055 | 40.55307 | 37938 ft | 469 kts | 307° |
| 2026-04-29 09:12 | 38.85224 | 40.48959 | 37939 ft | 469 kts | 307° |
| 2026-04-29 09:12 | 38.89418 | 40.42559 | 37941 ft | 468 kts | 307° |
| 2026-04-29 09:13 | 38.93594 | 40.36174 | 37944 ft | 467 kts | 307° |
| 2026-04-29 09:13 | 38.97760 | 40.29791 | 37947 ft | 466 kts | 307° |
| 2026-04-29 09:14 | 39.01891 | 40.23451 | 37952 ft | 465 kts | 307° |
| 2026-04-29 09:14 | 39.06042 | 40.17064 | 37944 ft | 465 kts | 307° |
| 2026-04-29 09:15 | 39.10185 | 40.10677 | 37956 ft | 465 kts | 307° |
| 2026-04-29 09:15 | 39.14331 | 40.04274 | 37947 ft | 466 kts | 307° |
| 2026-04-29 09:16 | 39.17778 | 39.98941 | 37953 ft | 466 kts | 307° |
| 2026-04-29 09:16 | 39.22594 | 39.91479 | 37968 ft | 465 kts | 307° |
| 2026-04-29 09:17 | 39.26032 | 39.86145 | 37956 ft | 465 kts | 307° |
| 2026-04-29 09:17 | 39.30859 | 39.78638 | 37958 ft | 465 kts | 307° |
| 2026-04-29 09:18 | 39.34287 | 39.73296 | 37940 ft | 464 kts | 307° |
| 2026-04-29 09:18 | 39.39063 | 39.65838 | 37966 ft | 463 kts | 307° |
| 2026-04-29 09:19 | 39.43166 | 39.59414 | 37983 ft | 463 kts | 307° |
| 2026-04-29 09:19 | 39.46572 | 39.54073 | 37992 ft | 463 kts | 307° |
| 2026-04-29 09:20 | 39.50664 | 39.47646 | 37997 ft | 462 kts | 307° |
| 2026-04-29 09:20 | 39.55374 | 39.40128 | 38015 ft | 462 kts | 306° |
| 2026-04-29 09:21 | 39.58743 | 39.34677 | 37974 ft | 462 kts | 306° |
| 2026-04-29 09:21 | 39.62731 | 39.28228 | 38012 ft | 461 kts | 306° |
| 2026-04-29 09:22 | 39.66751 | 39.21723 | 38016 ft | 462 kts | 306° |
| 2026-04-29 09:22 | 39.70777 | 39.15201 | 38002 ft | 463 kts | 306° |
| 2026-04-29 09:23 | 39.74812 | 39.08683 | 38009 ft | 464 kts | 306° |
| 2026-04-29 09:23 | 39.78866 | 39.02233 | 37999 ft | 464 kts | 306° |
| 2026-04-29 09:24 | 39.82952 | 38.95729 | 38008 ft | 465 kts | 306° |
| 2026-04-29 09:24 | 39.87038 | 38.89201 | 38008 ft | 465 kts | 306° |
| 2026-04-29 09:25 | 39.91109 | 38.82671 | 38001 ft | 464 kts | 306° |
| 2026-04-29 09:25 | 39.95144 | 38.76185 | 38005 ft | 463 kts | 306° |
| 2026-04-29 09:26 | 39.99198 | 38.69654 | 38000 ft | 463 kts | 306° |
| 2026-04-29 09:26 | 40.03236 | 38.63137 | 38001 ft | 461 kts | 306° |
| 2026-04-29 09:27 | 40.07185 | 38.56752 | 38006 ft | 460 kts | 306° |
| 2026-04-29 09:27 | 40.11177 | 38.50282 | 38012 ft | 460 kts | 306° |
| 2026-04-29 09:28 | 40.15193 | 38.43760 | 38012 ft | 460 kts | 306° |
| 2026-04-29 09:28 | 40.19193 | 38.37249 | 38015 ft | 460 kts | 306° |
| 2026-04-29 09:29 | 40.23196 | 38.30721 | 38023 ft | 459 kts | 306° |
| 2026-04-29 09:29 | 40.29160 | 38.20969 | 38026 ft | 459 kts | 306° |
| 2026-04-29 09:30 | 40.32766 | 38.14127 | 38028 ft | 455 kts | 297° |
| 2026-04-29 09:30 | 40.35404 | 38.06637 | 38033 ft | 453 kts | 290° |
| 2026-04-29 09:31 | 40.37676 | 37.98925 | 38039 ft | 452 kts | 289° |
| 2026-04-29 09:31 | 40.39937 | 37.91280 | 38031 ft | 453 kts | 289° |
| 2026-04-29 09:32 | 40.42233 | 37.83592 | 38050 ft | 453 kts | 290° |
| 2026-04-29 09:32 | 40.44536 | 37.75884 | 38051 ft | 453 kts | 289° |
| 2026-04-29 09:33 | 40.46830 | 37.68177 | 38057 ft | 453 kts | 290° |
| 2026-04-29 09:33 | 40.49100 | 37.60530 | 38067 ft | 453 kts | 289° |
| 2026-04-29 09:34 | 40.51383 | 37.52818 | 38069 ft | 453 kts | 289° |
| 2026-04-29 09:34 | 40.53665 | 37.45089 | 38073 ft | 453 kts | 289° |
| 2026-04-29 09:35 | 40.55940 | 37.37359 | 38082 ft | 453 kts | 289° |
| 2026-04-29 09:35 | 40.58192 | 37.29684 | 38079 ft | 453 kts | 289° |
| 2026-04-29 09:36 | 40.60452 | 37.21961 | 38096 ft | 452 kts | 289° |
| 2026-04-29 09:36 | 40.62705 | 37.14242 | 38105 ft | 452 kts | 289° |
| 2026-04-29 09:37 | 40.64952 | 37.06518 | 38104 ft | 451 kts | 289° |
| 2026-04-29 09:37 | 40.67174 | 36.98854 | 38101 ft | 451 kts | 289° |
| 2026-04-29 09:38 | 40.69406 | 36.91138 | 38106 ft | 450 kts | 289° |
| 2026-04-29 09:38 | 40.71623 | 36.83447 | 38112 ft | 450 kts | 289° |
| 2026-04-29 09:39 | 40.73838 | 36.75742 | 38120 ft | 449 kts | 289° |
| 2026-04-29 09:39 | 40.76035 | 36.68081 | 38123 ft | 449 kts | 289° |
| 2026-04-29 09:40 | 40.78241 | 36.60383 | 38127 ft | 449 kts | 289° |
| 2026-04-29 09:40 | 40.80452 | 36.52671 | 38126 ft | 449 kts | 289° |
| 2026-04-29 09:41 | 40.82658 | 36.44955 | 38131 ft | 449 kts | 289° |
| 2026-04-29 09:41 | 40.84841 | 36.37290 | 38129 ft | 449 kts | 289° |
| 2026-04-29 09:42 | 40.87031 | 36.29577 | 38133 ft | 448 kts | 289° |
| 2026-04-29 09:42 | 40.89215 | 36.21862 | 38127 ft | 449 kts | 289° |
| 2026-04-29 09:43 | 40.91395 | 36.14140 | 38124 ft | 448 kts | 289° |
| 2026-04-29 09:43 | 40.93573 | 36.06401 | 38131 ft | 449 kts | 289° |
| 2026-04-29 09:44 | 40.95698 | 35.98696 | 38124 ft | 449 kts | 288° |
| 2026-04-29 09:44 | 40.97819 | 35.90923 | 38123 ft | 449 kts | 288° |
| 2026-04-29 09:45 | 40.99952 | 35.83140 | 38115 ft | 450 kts | 288° |
| 2026-04-29 09:45 | 41.02111 | 35.75368 | 38109 ft | 450 kts | 289° |
| 2026-04-29 09:46 | 41.04254 | 35.67649 | 38106 ft | 450 kts | 288° |
| 2026-04-29 09:46 | 41.06404 | 35.59864 | 38105 ft | 450 kts | 288° |
| 2026-04-29 09:47 | 41.08547 | 35.52073 | 38103 ft | 450 kts | 288° |
| 2026-04-29 09:47 | 41.10681 | 35.44291 | 38093 ft | 450 kts | 288° |
| 2026-04-29 09:48 | 41.12799 | 35.36542 | 38114 ft | 449 kts | 288° |
| 2026-04-29 09:48 | 41.14923 | 35.28746 | 38094 ft | 449 kts | 288° |
| 2026-04-29 09:49 | 41.17041 | 35.20949 | 38093 ft | 449 kts | 288° |
| 2026-04-29 09:49 | 41.19153 | 35.13150 | 38091 ft | 449 kts | 288° |
| 2026-04-29 09:50 | 41.21245 | 35.05400 | 38103 ft | 449 kts | 288° |
| 2026-04-29 09:50 | 41.23347 | 34.97591 | 38075 ft | 449 kts | 288° |
| 2026-04-29 09:51 | 41.25443 | 34.89780 | 38078 ft | 449 kts | 288° |
| 2026-04-29 09:51 | 41.27534 | 34.81960 | 38064 ft | 449 kts | 288° |
| 2026-04-29 09:52 | 41.29608 | 34.74183 | 38064 ft | 449 kts | 288° |
| 2026-04-29 09:52 | 41.31688 | 34.66362 | 38080 ft | 449 kts | 288° |
| 2026-04-29 09:53 | 41.33764 | 34.58528 | 38065 ft | 448 kts | 288° |
| 2026-04-29 09:53 | 41.35828 | 34.50713 | 38070 ft | 448 kts | 288° |
| 2026-04-29 09:54 | 41.37874 | 34.42945 | 38053 ft | 447 kts | 288° |
| 2026-04-29 09:54 | 41.39926 | 34.35133 | 38062 ft | 446 kts | 288° |
| 2026-04-29 09:55 | 41.41951 | 34.27328 | 38067 ft | 445 kts | 288° |
| 2026-04-29 09:55 | 41.43943 | 34.19570 | 38068 ft | 445 kts | 288° |
| 2026-04-29 09:56 | 41.45943 | 34.11780 | 38074 ft | 444 kts | 288° |
| 2026-04-29 09:56 | 41.47944 | 34.04010 | 38075 ft | 443 kts | 288° |
| 2026-04-29 09:57 | 41.49939 | 33.96254 | 38079 ft | 442 kts | 288° |
| 2026-04-29 09:57 | 41.51910 | 33.88561 | 38085 ft | 440 kts | 288° |
| 2026-04-29 09:58 | 41.53881 | 33.80840 | 38092 ft | 439 kts | 288° |
| 2026-04-29 09:58 | 41.55846 | 33.73123 | 38083 ft | 439 kts | 288° |
| 2026-04-29 09:59 | 41.57804 | 33.65401 | 38093 ft | 439 kts | 288° |
| 2026-04-29 09:59 | 41.59758 | 33.57675 | 38098 ft | 439 kts | 288° |
| 2026-04-29 10:00 | 41.61659 | 33.49978 | 38101 ft | 439 kts | 288° |
| 2026-04-29 10:00 | 41.63604 | 33.42263 | 38119 ft | 438 kts | 288° |
| 2026-04-29 10:01 | 41.65553 | 33.34544 | 38124 ft | 438 kts | 288° |
| 2026-04-29 10:01 | 41.67478 | 33.26879 | 38127 ft | 437 kts | 288° |
| 2026-04-29 10:02 | 41.69404 | 33.19171 | 38133 ft | 437 kts | 288° |
| 2026-04-29 10:02 | 41.71326 | 33.11454 | 38152 ft | 437 kts | 288° |
| 2026-04-29 10:03 | 41.73239 | 33.03755 | 38154 ft | 435 kts | 288° |
| 2026-04-29 10:03 | 41.75112 | 32.96100 | 38156 ft | 435 kts | 288° |
| 2026-04-29 10:04 | 41.76977 | 32.88404 | 38167 ft | 435 kts | 288° |
| 2026-04-29 10:04 | 41.78842 | 32.80700 | 38178 ft | 434 kts | 287° |
| 2026-04-29 10:05 | 41.80674 | 32.73132 | 38177 ft | 434 kts | 288° |